首页
METAR-TAF:

METAR-TAF

机场 :

Bullhead City, 亞利桑那州, 美国

纬度: 35-09-27N, 经度: 114-33-34W, 海拔: 212米

当前天气观测

该预报发布于49分钟前的20:59 UTC
风速12节,风向
温度 41°C
湿度 13%
气压 1009 hPa
能見度: 16.1公里
散云层高于14000英尺

METAR: KIFP 212059Z 19012KT 10SM SCT140 41/07 A2981

时间: 14:48 (21:48 UTC)

预报

该预报发布于4小时和28分钟前的17:20 UTC
预报有效从21日的 18点(UTC)到 22日的 18点(UTC)
风速9节,风向南转西南
能見度: 10公里
天空无云
从 21日的 2100点(UTC)
风速12节,风向,有时为19节阵风
能見度: 10公里
天空无云
从 22日的 0200点(UTC)
风速7节,风向南转南东
能見度: 10公里
散云层高于25000英尺
从 22日的 0700点(UTC)
风速5节,风向多变
能見度: 10公里
多云层高于25000英尺
从 22日的 1600点(UTC)
风速9节,风向南转西南
能見度: 10公里
散云层高于12000英尺
多云层高于20000英尺

TAF: KIFP 211720Z 2118/2218 21009KT P6SM SKC FM212100 18012G19KT P6SM SKC FM220200 16007KT P6SM SCT250 FM220700 VRB05KT P6SM BKN250 FM221600 20009KT P6SM SCT120 BKN200

超过4000个机场的气象观测和天气预报(METAR&TAF报告)。

可查询的气象台以黄色和红色小点在地图上表示。

将鼠标移到小点上方,可查看气象台名称。

然后点击查看天气观测和预报。

如需切换地图:点击带黑十字的绿色按钮放大地图;点击带横线的绿色按钮缩小地图;或者点击绿色箭头查看邻近地区的地图。


METAR-TAF: